Terminal Aerodrome Forecast
Issued by NWS Duluth, MN

Home | Current Version | Previous Version | Text Only | Print | Product List | Glossary On
Versions: 1 2 3 4 5 6 7 8 9 10 11 12 13 14 15 16 17 18 19 20 21 22 23 24
000
FTUS43 KDLH 171504 AAB
TAFDLH
TAF AMD
KDLH 171504Z 1715/1812 28014G22KT P6SM BKN024 OVC030
     FM171800 28013G21KT P6SM BKN040
     FM180000 26004KT P6SM SKC
     FM180800 24003KT P6SM SCT080=

USA.gov is the U.S. government's official web portal to all federal, state and local government web resources and services.